createdAt,value
2022-11-20T00:01:21.941Z,-3.69
2022-11-20T00:03:49.444Z,-3.78
2022-11-20T00:06:18.532Z,-3.75
2022-11-20T00:08:45.788Z,-3.79
2022-11-20T00:11:16.424Z,-3.84
2022-11-20T00:13:44.341Z,-3.83
2022-11-20T00:16:12.584Z,-3.84
2022-11-20T00:18:39.215Z,-3.79
2022-11-20T00:21:24.364Z,-3.79
2022-11-20T00:23:54.880Z,-3.80
2022-11-20T00:26:23.210Z,-3.83
2022-11-20T00:28:55.408Z,-3.91
2022-11-20T00:31:22.660Z,-3.89
2022-11-20T00:33:49.283Z,-3.91
2022-11-20T00:36:22.213Z,-3.91
2022-11-20T00:38:53.543Z,-4.00
2022-11-20T00:41:21.014Z,-3.95
2022-11-20T00:43:47.645Z,-3.94
2022-11-20T00:46:19.706Z,-3.96
2022-11-20T00:48:46.909Z,-4.05
2022-11-20T00:51:16.191Z,-4.01
2022-11-20T00:53:43.659Z,-4.08
2022-11-20T00:56:16.140Z,-4.05
2022-11-20T00:58:45.237Z,-4.09
2022-11-20T01:01:15.501Z,-4.15
2022-11-20T01:03:45.288Z,-4.09
2022-11-20T01:06:23.738Z,-4.18
2022-11-20T01:08:51.822Z,-4.22
2022-11-20T01:11:21.756Z,-4.22
2022-11-20T01:13:50.516Z,-4.23
2022-11-20T01:16:18.996Z,-4.23
2022-11-20T01:18:47.569Z,-4.18
2022-11-20T01:21:20.349Z,-4.12
2022-11-20T01:23:49.234Z,-4.07
2022-11-20T01:26:19.659Z,-4.16
2022-11-20T01:28:46.763Z,-4.20
2022-11-20T01:31:18.987Z,-4.22
2022-11-20T01:33:48.105Z,-4.28
2022-11-20T01:36:16.064Z,-4.26
2022-11-20T01:38:43.477Z,-4.27
2022-11-20T01:41:11.591Z,-4.38
2022-11-20T01:43:38.128Z,-4.38
2022-11-20T01:46:19.735Z,-4.31
2022-11-20T01:48:58.876Z,-4.36
2022-11-20T01:51:45.189Z,-4.36
2022-11-20T01:54:21.072Z,-4.41
2022-11-20T01:56:49.313Z,-4.47
2022-11-20T01:59:19.431Z,-4.44
2022-11-20T02:01:46.960Z,-4.44
2022-11-20T02:04:14.882Z,-4.51
2022-11-20T02:06:47.433Z,-4.47
2022-11-20T02:09:15.146Z,-4.51
2022-11-20T02:11:42.283Z,-4.52
2022-11-20T02:14:09.663Z,-4.55
2022-11-20T02:16:40.324Z,-4.55
2022-11-20T02:19:14.725Z,-4.52
2022-11-20T02:21:55.837Z,-4.49
2022-11-20T02:24:23.783Z,-4.50
2022-11-20T02:26:55.419Z,-4.48
2022-11-20T02:29:32.019Z,-4.53
2022-11-20T02:32:01.736Z,-4.50
2022-11-20T02:34:29.818Z,-4.58
2022-11-20T02:36:57.943Z,-4.63
2022-11-20T02:39:26.534Z,-4.61
2022-11-20T02:41:54.644Z,-4.62
2022-11-20T02:44:21.773Z,-4.65
2022-11-20T02:46:48.287Z,-4.65
2022-11-20T02:49:15.430Z,-4.63
2022-11-20T02:51:42.966Z,-4.63
2022-11-20T02:54:09.459Z,-4.69
2022-11-20T02:56:39.469Z,-4.65
2022-11-20T02:59:06.813Z,-4.64
2022-11-20T03:01:33.372Z,-4.60
2022-11-20T03:04:00.020Z,-4.68
2022-11-20T03:06:27.051Z,-4.72
2022-11-20T03:08:54.594Z,-4.75
2022-11-20T03:11:22.144Z,-4.72
2022-11-20T03:13:48.678Z,-4.71
2022-11-20T03:16:18.883Z,-4.74
2022-11-20T03:18:45.808Z,-4.75
2022-11-20T03:21:14.429Z,-4.81
2022-11-20T03:23:41.525Z,-4.75
2022-11-20T03:26:15.093Z,-4.86
2022-11-20T03:28:43.570Z,-4.72
2022-11-20T03:31:12.705Z,-4.82
2022-11-20T03:33:40.923Z,-4.70
2022-11-20T03:36:11.641Z,-4.70
2022-11-20T03:38:38.946Z,-4.72
2022-11-20T03:41:12.162Z,-4.74
2022-11-20T03:43:39.319Z,-4.80
2022-11-20T03:46:06.923Z,-4.87
2022-11-20T03:48:33.957Z,-4.97
2022-11-20T03:51:24.880Z,-4.85
2022-11-20T03:53:54.195Z,-4.86
2022-11-20T03:56:25.243Z,-4.86
2022-11-20T03:58:51.909Z,-4.88
2022-11-20T04:01:25.163Z,-4.91
2022-11-20T04:03:53.774Z,-4.92
2022-11-20T04:06:23.555Z,-4.85
2022-11-20T04:08:53.740Z,-4.85
2022-11-20T04:11:31.365Z,-4.80
2022-11-20T04:13:59.919Z,-4.89
2022-11-20T04:16:29.645Z,-4.90
2022-11-20T04:18:59.111Z,-4.92
2022-11-20T04:21:27.025Z,-4.92
2022-11-20T04:23:54.841Z,-4.99
2022-11-20T04:26:23.212Z,-5.05
2022-11-20T04:28:50.832Z,-5.03
2022-11-20T04:31:20.010Z,-4.93
2022-11-20T04:33:47.765Z,-4.97
2022-11-20T04:36:25.833Z,-5.04
2022-11-20T04:38:59.903Z,-5.08
2022-11-20T04:41:30.184Z,-5.01
2022-11-20T04:44:04.077Z,-5.04
2022-11-20T04:46:33.254Z,-5.03
2022-11-20T04:49:00.236Z,-5.11
2022-11-20T04:51:27.368Z,-5.20
2022-11-20T04:53:54.981Z,-5.08
2022-11-20T04:56:21.512Z,-5.06
2022-11-20T04:58:48.097Z,-4.97
2022-11-20T05:01:16.183Z,-4.96
2022-11-20T05:03:44.465Z,-4.93
2022-11-20T05:06:14.596Z,-4.89
2022-11-20T05:08:42.021Z,-4.93
2022-11-20T05:11:14.271Z,-4.95
2022-11-20T05:13:41.203Z,-5.06
2022-11-20T05:16:14.352Z,-5.07
2022-11-20T05:18:42.572Z,-5.02
2022-11-20T05:21:10.382Z,-4.96
2022-11-20T05:23:37.661Z,-5.08
2022-11-20T05:26:05.100Z,-5.04
2022-11-20T05:28:32.643Z,-5.14
2022-11-20T05:31:08.241Z,-5.20
2022-11-20T05:33:36.414Z,-5.15
2022-11-20T05:36:04.508Z,-5.17
2022-11-20T05:38:31.131Z,-5.11
2022-11-20T05:41:04.992Z,-5.10
2022-11-20T05:43:36.534Z,-5.06
2022-11-20T05:46:04.808Z,-5.08
2022-11-20T05:48:31.820Z,-5.17
2022-11-20T05:51:03.404Z,-5.06
2022-11-20T05:53:30.812Z,-5.17
2022-11-20T05:56:02.227Z,-5.15
2022-11-20T05:58:30.413Z,-5.24
2022-11-20T06:01:08.317Z,-5.24
2022-11-20T06:03:35.535Z,-5.24
2022-11-20T06:06:03.408Z,-5.24
2022-11-20T06:08:30.143Z,-5.25
2022-11-20T06:10:57.629Z,-5.25
2022-11-20T06:13:24.555Z,-5.25
2022-11-20T06:15:52.813Z,-5.26
2022-11-20T06:18:20.761Z,-5.27
2022-11-20T06:20:47.756Z,-5.24
2022-11-20T06:23:14.550Z,-5.26
2022-11-20T06:25:41.968Z,-5.31
2022-11-20T06:28:09.901Z,-5.25
2022-11-20T06:30:37.042Z,-5.29
2022-11-20T06:33:03.572Z,-5.28
2022-11-20T06:35:30.132Z,-5.28
2022-11-20T06:37:57.174Z,-5.25
2022-11-20T06:40:23.662Z,-5.31
2022-11-20T06:42:50.140Z,-5.28
2022-11-20T06:45:16.661Z,-5.26
2022-11-20T06:47:43.136Z,-5.28
2022-11-20T06:50:09.849Z,-5.31
2022-11-20T06:52:42.296Z,-5.17
2022-11-20T06:55:10.210Z,-5.13
2022-11-20T06:57:36.771Z,-5.17
2022-11-20T07:00:04.215Z,-5.19
2022-11-20T07:02:30.746Z,-5.14
2022-11-20T07:04:57.278Z,-5.12
2022-11-20T07:07:23.895Z,-5.09
2022-11-20T07:09:50.450Z,-5.10
2022-11-20T07:12:17.610Z,-5.07
2022-11-20T07:14:44.168Z,-5.04
2022-11-20T07:17:11.244Z,-5.07
2022-11-20T07:19:37.738Z,-5.02
2022-11-20T07:22:04.328Z,-5.00
2022-11-20T07:24:31.125Z,-4.91
2022-11-20T07:26:57.671Z,-4.89
2022-11-20T07:29:24.293Z,-4.93
2022-11-20T07:31:51.038Z,-4.85
2022-11-20T07:34:17.556Z,-4.81
2022-11-20T07:36:44.103Z,-4.72
2022-11-20T07:39:10.612Z,-4.66
2022-11-20T07:41:37.197Z,-4.67
2022-11-20T07:44:03.891Z,-4.58
2022-11-20T07:46:30.416Z,-4.53
2022-11-20T07:48:57.465Z,-4.49
2022-11-20T07:51:24.552Z,-4.48
2022-11-20T07:53:54.919Z,-4.43
2022-11-20T07:56:21.425Z,-4.41
2022-11-20T07:58:48.059Z,-4.38
2022-11-20T08:01:14.665Z,-4.25
2022-11-20T08:03:41.209Z,-4.22
2022-11-20T08:06:08.809Z,-4.11
2022-11-20T08:08:38.850Z,-4.02
2022-11-20T08:11:47.193Z,-3.86
2022-11-20T08:14:14.529Z,-3.76
2022-11-20T08:16:42.982Z,-3.71
2022-11-20T08:19:10.317Z,-3.59
2022-11-20T08:21:38.509Z,-3.56
2022-11-20T08:24:06.059Z,-3.42
2022-11-20T08:26:32.581Z,-3.37
2022-11-20T08:28:59.448Z,-3.35
2022-11-20T08:31:28.420Z,-3.28
2022-11-20T08:33:55.261Z,-3.21
2022-11-20T08:36:23.315Z,-3.13
2022-11-20T08:38:51.018Z,-3.05
2022-11-20T08:41:27.921Z,-3.05
2022-11-20T08:44:00.285Z,-2.98
2022-11-20T08:46:28.723Z,-2.97
2022-11-20T08:48:55.285Z,-2.91
2022-11-20T08:51:21.963Z,-2.86
2022-11-20T08:53:49.621Z,-2.81
2022-11-20T08:56:16.853Z,-2.72
2022-11-20T08:59:10.330Z,-2.61
2022-11-20T09:01:30.527Z,-2.57
2022-11-20T09:03:58.198Z,-2.44
2022-11-20T09:06:24.786Z,-2.44
2022-11-20T09:08:54.888Z,-2.42
2022-11-20T09:11:22.360Z,-2.39
2022-11-20T09:13:49.179Z,-2.35
2022-11-20T09:16:15.779Z,-2.26
2022-11-20T09:18:42.345Z,-2.17
2022-11-20T09:21:15.039Z,-2.16
2022-11-20T09:23:41.918Z,-2.18
2022-11-20T09:26:12.101Z,-2.09
2022-11-20T09:28:39.440Z,-2.08
2022-11-20T09:31:16.320Z,-2.02
2022-11-20T09:33:43.958Z,-2.02
2022-11-20T09:36:10.507Z,-1.91
2022-11-20T09:38:37.520Z,-1.95
2022-11-20T09:41:06.781Z,-1.86
2022-11-20T09:43:47.806Z,-1.80
2022-11-20T09:46:33.202Z,-1.71
2022-11-20T09:49:06.498Z,-1.65
2022-11-20T09:51:59.433Z,-1.62
2022-11-20T09:54:33.937Z,-1.51
2022-11-20T09:57:09.985Z,-1.51
2022-11-20T09:59:41.326Z,-1.44
2022-11-20T10:02:35.814Z,-1.42
2022-11-20T10:05:09.742Z,-1.33
2022-11-20T10:08:10.602Z,-1.25
2022-11-20T10:10:43.918Z,-1.15
2022-11-20T10:13:31.200Z,-1.11
2022-11-20T10:16:29.521Z,-0.98
2022-11-20T10:19:14.904Z,-0.94
2022-11-20T10:21:53.552Z,-0.95
2022-11-20T10:24:49.157Z,-0.84
2022-11-20T10:27:24.600Z,-0.78
2022-11-20T10:30:11.733Z,-0.71
2022-11-20T10:32:48.798Z,-0.69
2022-11-20T10:35:15.294Z,-0.56
2022-11-20T10:37:57.574Z,-0.55
2022-11-20T10:40:32.128Z,-0.48
2022-11-20T10:43:03.954Z,-0.53
2022-11-20T10:46:09.574Z,-0.41
2022-11-20T10:48:45.520Z,-0.40
2022-11-20T10:51:30.856Z,-0.29
2022-11-20T10:54:23.305Z,-0.27
2022-11-20T10:56:53.641Z,-0.15
2022-11-20T11:00:00.783Z,-0.11
2022-11-20T11:02:45.269Z,-0.12
2022-11-20T11:05:23.453Z,-0.11
2022-11-20T11:07:54.368Z,-0.08
2022-11-20T11:10:39.570Z,-0.06
2022-11-20T11:13:06.154Z,-0.07
2022-11-20T11:15:41.498Z,-0.03
2022-11-20T11:18:12.145Z,-0.09
2022-11-20T11:20:39.312Z,0.09
2022-11-20T11:23:05.977Z,0.13
2022-11-20T11:25:37.204Z,0.12
2022-11-20T11:28:27.062Z,0.05
2022-11-20T11:30:53.731Z,0.12
2022-11-20T11:33:31.760Z,0.08
2022-11-20T11:36:04.589Z,0.05
2022-11-20T11:38:45.003Z,0.12
2022-11-20T11:41:20.468Z,0.17
2022-11-20T11:44:14.936Z,0.14
2022-11-20T11:46:50.362Z,0.20
2022-11-20T11:49:21.352Z,0.19
2022-11-20T11:52:17.326Z,0.12
2022-11-20T11:54:54.770Z,0.06
2022-11-20T11:57:24.366Z,0.16
2022-11-20T12:00:09.177Z,0.19
2022-11-20T12:02:49.319Z,0.20
2022-11-20T12:05:22.471Z,0.22
2022-11-20T12:07:57.664Z,0.18
2022-11-20T12:10:52.756Z,0.22
2022-11-20T12:13:23.541Z,0.28
2022-11-20T12:15:51.008Z,0.25
2022-11-20T12:18:21.661Z,0.29
2022-11-20T12:21:36.238Z,0.37
2022-11-20T12:24:11.109Z,0.33
2022-11-20T12:26:46.789Z,0.38
2022-11-20T12:29:34.328Z,0.38
2022-11-20T12:32:03.771Z,0.42
2022-11-20T12:34:49.648Z,0.38
2022-11-20T12:37:41.638Z,0.41
2022-11-20T12:40:37.209Z,0.51
2022-11-20T12:43:41.226Z,0.48
2022-11-20T12:46:13.805Z,0.59
2022-11-20T12:48:51.690Z,0.58
2022-11-20T12:51:31.814Z,0.58
2022-11-20T12:54:25.861Z,0.67
2022-11-20T12:57:10.565Z,0.63
2022-11-20T13:00:16.790Z,0.64
2022-11-20T13:02:52.452Z,0.67
2022-11-20T13:05:20.930Z,0.65
2022-11-20T13:07:48.909Z,0.65
2022-11-20T13:10:26.737Z,0.57
2022-11-20T13:13:03.761Z,0.65
2022-11-20T13:16:06.200Z,0.66
2022-11-20T13:18:40.490Z,0.60
2022-11-20T13:21:18.798Z,0.59
2022-11-20T13:23:45.392Z,0.62
2022-11-20T13:26:19.147Z,0.60
2022-11-20T13:28:47.662Z,0.61
2022-11-20T13:31:47.411Z,0.74
2022-11-20T13:34:25.550Z,0.62
2022-11-20T13:36:55.324Z,0.64
2022-11-20T13:39:29.981Z,0.71
2022-11-20T13:42:19.933Z,0.76
2022-11-20T13:44:54.880Z,0.75
2022-11-20T13:47:26.989Z,0.74
2022-11-20T13:49:56.312Z,0.76
2022-11-20T13:52:31.935Z,0.78
2022-11-20T13:54:58.927Z,0.82
2022-11-20T13:57:43.731Z,0.87
2022-11-20T14:00:22.315Z,0.86
2022-11-20T14:03:15.752Z,0.94
2022-11-20T14:05:52.276Z,0.88
2022-11-20T14:08:28.248Z,0.86
2022-11-20T14:11:13.772Z,0.88
2022-11-20T14:13:40.634Z,0.93
2022-11-20T14:16:07.214Z,0.93
2022-11-20T14:18:33.758Z,0.97
2022-11-20T14:21:04.740Z,0.96
2022-11-20T14:23:31.447Z,0.90
2022-11-20T14:25:58.604Z,0.97
2022-11-20T14:28:30.562Z,0.96
2022-11-20T14:30:58.099Z,0.96
2022-11-20T14:33:27.425Z,0.95
2022-11-20T14:35:57.051Z,1.07
2022-11-20T14:38:27.802Z,1.06
2022-11-20T14:40:54.965Z,1.09
2022-11-20T14:43:25.859Z,1.07
2022-11-20T14:46:04.836Z,1.02
2022-11-20T14:48:54.795Z,0.99
2022-11-20T14:51:29.243Z,0.99
2022-11-20T14:53:55.855Z,1.02
2022-11-20T14:56:25.666Z,0.99
2022-11-20T14:58:59.905Z,0.97
2022-11-20T15:01:28.626Z,0.94
2022-11-20T15:04:11.959Z,0.95
2022-11-20T15:06:49.576Z,0.93
2022-11-20T15:09:17.020Z,0.95
2022-11-20T15:11:55.207Z,0.94
2022-11-20T15:14:22.731Z,0.95
2022-11-20T15:16:50.221Z,0.88
2022-11-20T15:19:24.475Z,0.91
2022-11-20T15:21:51.611Z,0.88
2022-11-20T15:24:18.974Z,0.88
2022-11-20T15:26:45.972Z,0.89
2022-11-20T15:29:15.252Z,0.85
2022-11-20T15:31:44.396Z,0.87
2022-11-20T15:34:16.319Z,0.83
2022-11-20T15:36:44.101Z,0.84
2022-11-20T15:39:11.121Z,0.75
2022-11-20T15:41:38.279Z,0.86
2022-11-20T15:44:06.097Z,0.84
2022-11-20T15:46:39.386Z,0.79
2022-11-20T15:49:07.149Z,0.83
2022-11-20T15:51:37.608Z,0.82
2022-11-20T15:54:16.031Z,0.77
2022-11-20T15:56:45.394Z,0.80
2022-11-20T15:59:12.496Z,0.86
2022-11-20T16:01:39.208Z,0.79
2022-11-20T16:04:09.855Z,0.80
2022-11-20T16:06:36.362Z,0.78
2022-11-20T16:09:03.135Z,0.79
2022-11-20T16:11:29.627Z,0.82
2022-11-20T16:14:15.097Z,0.79
2022-11-20T16:16:42.823Z,0.85
2022-11-20T16:19:15.413Z,0.85
2022-11-20T16:21:42.653Z,0.84
2022-11-20T16:24:13.635Z,0.89
2022-11-20T16:26:41.533Z,0.84
2022-11-20T16:29:08.372Z,0.91
2022-11-20T16:31:35.098Z,0.93
2022-11-20T16:34:11.531Z,0.94
2022-11-20T16:36:41.349Z,1.06
2022-11-20T16:39:07.970Z,1.03
2022-11-20T16:41:35.348Z,1.07
2022-11-20T16:44:06.741Z,1.08
2022-11-20T16:46:33.857Z,1.02
2022-11-20T16:49:02.652Z,1.04
2022-11-20T16:51:31.730Z,1.02
2022-11-20T16:54:01.668Z,1.01
2022-11-20T16:56:28.923Z,0.98
2022-11-20T16:58:58.672Z,0.97
2022-11-20T17:01:27.107Z,0.98
2022-11-20T17:03:56.641Z,0.98
2022-11-20T17:06:27.447Z,1.04
2022-11-20T17:08:55.845Z,1.01
2022-11-20T17:11:23.228Z,1.02
2022-11-20T17:13:50.352Z,1.03
2022-11-20T17:16:22.690Z,1.08
2022-11-20T17:18:51.991Z,0.99
2022-11-20T17:21:20.241Z,1.02
2022-11-20T17:23:47.620Z,1.04
2022-11-20T17:26:22.562Z,1.07
2022-11-20T17:29:19.300Z,1.08
2022-11-20T17:31:46.369Z,1.09
2022-11-20T17:34:14.661Z,1.09
2022-11-20T17:36:45.551Z,1.05
2022-11-20T17:39:17.447Z,1.04
2022-11-20T17:41:44.291Z,1.09
2022-11-20T17:44:12.409Z,1.10
2022-11-20T17:46:38.984Z,1.07
2022-11-20T17:49:05.675Z,1.14
2022-11-20T17:51:35.191Z,1.16
2022-11-20T17:54:04.310Z,1.07
2022-11-20T17:56:51.068Z,1.14
2022-11-20T17:59:18.859Z,1.18
2022-11-20T18:01:46.248Z,1.13
2022-11-20T18:04:13.333Z,1.17
2022-11-20T18:06:41.262Z,1.16
2022-11-20T18:09:08.261Z,1.14
2022-11-20T18:11:37.884Z,1.10
2022-11-20T18:14:25.898Z,1.16
2022-11-20T18:16:55.142Z,1.15
2022-11-20T18:19:32.213Z,1.07
2022-11-20T18:22:01.779Z,1.11
2022-11-20T18:24:28.910Z,1.13
2022-11-20T18:26:55.649Z,1.14
2022-11-20T18:29:22.569Z,1.14
2022-11-20T18:31:50.131Z,1.10
2022-11-20T18:34:16.805Z,1.14
2022-11-20T18:36:43.540Z,1.10
2022-11-20T18:39:12.276Z,1.16
2022-11-20T18:41:58.354Z,1.16
2022-11-20T18:44:48.668Z,1.15
2022-11-20T18:47:19.005Z,1.15
2022-11-20T18:49:52.803Z,1.07
2022-11-20T18:52:21.471Z,1.10
2022-11-20T18:54:48.760Z,1.16
2022-11-20T18:57:25.777Z,1.13
2022-11-20T18:59:53.727Z,1.16
2022-11-20T19:02:21.873Z,1.15
2022-11-20T19:04:48.721Z,1.16
2022-11-20T19:07:16.255Z,1.18
2022-11-20T19:09:45.378Z,1.20
2022-11-20T19:12:12.672Z,1.16
2022-11-20T19:14:39.909Z,1.19
2022-11-20T19:17:07.729Z,1.22
2022-11-20T19:19:35.718Z,1.24
2022-11-20T19:22:02.605Z,1.23
2022-11-20T19:24:30.767Z,1.26
2022-11-20T19:26:57.392Z,1.23
2022-11-20T19:29:25.205Z,1.24
2022-11-20T19:31:53.318Z,1.20
2022-11-20T19:34:20.917Z,1.22
2022-11-20T19:36:47.499Z,1.24
2022-11-20T19:39:14.194Z,1.22
2022-11-20T19:41:41.936Z,1.16
2022-11-20T19:44:11.350Z,1.11
2022-11-20T19:46:39.173Z,1.22
2022-11-20T19:49:09.369Z,1.18
2022-11-20T19:51:37.785Z,1.20
2022-11-20T19:54:05.480Z,1.17
2022-11-20T19:56:33.297Z,1.23
2022-11-20T19:59:00.271Z,1.20
2022-11-20T20:01:31.921Z,1.24
2022-11-20T20:04:05.454Z,1.17
2022-11-20T20:06:34.121Z,1.22
2022-11-20T20:09:12.616Z,1.18
2022-11-20T20:11:40.393Z,1.19
2022-11-20T20:14:10.361Z,1.18
2022-11-20T20:16:37.329Z,1.13
2022-11-20T20:19:05.181Z,1.08
2022-11-20T20:21:33.889Z,1.09
2022-11-20T20:24:01.229Z,1.07
2022-11-20T20:26:31.419Z,1.04
2022-11-20T20:28:58.605Z,1.01
2022-11-20T20:31:27.391Z,1.05
2022-11-20T20:33:54.475Z,0.97
2022-11-20T20:36:22.870Z,0.98
2022-11-20T20:38:56.519Z,0.93
2022-11-20T20:41:25.124Z,0.90
2022-11-20T20:44:11.015Z,0.86
2022-11-20T20:46:37.696Z,0.85
2022-11-20T20:49:04.984Z,0.85
2022-11-20T20:51:32.075Z,0.88
2022-11-20T20:53:59.414Z,0.83
2022-11-20T20:56:26.522Z,0.79
2022-11-20T20:58:53.074Z,0.81
2022-11-20T21:01:20.934Z,0.79
2022-11-20T21:03:48.203Z,0.82
2022-11-20T21:06:14.841Z,0.80
2022-11-20T21:08:44.111Z,0.74
2022-11-20T21:11:13.776Z,0.78
2022-11-20T21:13:43.015Z,0.80
2022-11-20T21:16:10.630Z,0.77
2022-11-20T21:18:37.568Z,0.78
2022-11-20T21:21:24.873Z,0.81
2022-11-20T21:23:53.359Z,0.76
2022-11-20T21:26:20.855Z,0.75
2022-11-20T21:28:47.939Z,0.79
2022-11-20T21:31:16.930Z,0.85
2022-11-20T21:33:45.453Z,0.83
2022-11-20T21:36:15.034Z,0.83
2022-11-20T21:38:41.774Z,0.81
2022-11-20T21:41:10.333Z,0.83
2022-11-20T21:43:37.638Z,0.83
2022-11-20T21:46:13.261Z,0.87
2022-11-20T21:48:41.672Z,0.87
2022-11-20T21:51:14.616Z,0.88
2022-11-20T21:53:42.567Z,0.84
2022-11-20T21:56:10.337Z,0.80
2022-11-20T21:58:38.665Z,0.85
2022-11-20T22:01:17.356Z,0.86
2022-11-20T22:03:51.319Z,0.88
2022-11-20T22:06:19.138Z,0.90
2022-11-20T22:08:46.188Z,0.90
2022-11-20T22:11:15.010Z,0.92
2022-11-20T22:14:00.757Z,0.86
2022-11-20T22:16:27.925Z,0.90
2022-11-20T22:18:56.404Z,0.86
2022-11-20T22:21:25.428Z,0.90
2022-11-20T22:23:52.509Z,0.89
2022-11-20T22:26:24.326Z,0.86
2022-11-20T22:28:53.164Z,0.87
2022-11-20T22:31:21.285Z,0.87
2022-11-20T22:33:48.091Z,0.85
2022-11-20T22:36:17.602Z,0.86
2022-11-20T22:38:44.751Z,0.83
2022-11-20T22:41:18.326Z,0.77
2022-11-20T22:43:46.542Z,0.76
2022-11-20T22:46:18.806Z,0.80
2022-11-20T22:48:50.717Z,0.83
2022-11-20T22:51:20.326Z,0.85
2022-11-20T22:53:47.579Z,0.86
2022-11-20T22:56:15.019Z,0.86
2022-11-20T22:58:44.528Z,0.90
2022-11-20T23:01:17.190Z,0.89
2022-11-20T23:03:46.216Z,0.87
2022-11-20T23:06:13.476Z,0.82
2022-11-20T23:08:41.671Z,0.78
2022-11-20T23:11:11.695Z,0.79
2022-11-20T23:13:39.644Z,0.83
2022-11-20T23:16:17.176Z,0.85
2022-11-20T23:18:44.188Z,0.85
2022-11-20T23:21:16.241Z,0.85
2022-11-20T23:23:44.005Z,0.81
2022-11-20T23:26:12.762Z,0.78
2022-11-20T23:28:40.917Z,0.81
2022-11-20T23:31:08.443Z,0.81
2022-11-20T23:33:36.246Z,0.81
2022-11-20T23:36:03.515Z,0.75
2022-11-20T23:38:30.685Z,0.74
2022-11-20T23:40:57.320Z,0.78
2022-11-20T23:43:24.344Z,0.71
2022-11-20T23:45:56.175Z,0.70
2022-11-20T23:48:25.471Z,0.70
2022-11-20T23:50:52.493Z,0.71
2022-11-20T23:53:19.829Z,0.64
2022-11-20T23:55:48.477Z,0.65
2022-11-20T23:58:16.013Z,0.61
